Time;durP1;ratioP1;P1;durP2;ratioP2;P2;SDS_P1;SDS_P2;PMS_P1;PMS_P2;Temp;Humidity;BMP_temperature;BMP_pressure;BME280_temperature;BME280_humidity;BME280_pressure;Samples;Min_cycle;Max_cycle;Signal;HPM_P1;HPM_P2
2023/12/12 00:00:29;;;;;;;13.75;8.27;;;;;;;-5.58;100.00;101058.56;5053399;28;20045;-69
2023/12/12 00:02:58;;;;;;;13.45;8.75;;;;;;;-5.52;100.00;101053.16;5051016;28;20041;-66
2023/12/12 00:05:24;;;;;;;12.55;8.45;;;;;;;-5.97;100.00;100978.69;5053620;28;20480;-65
2023/12/12 00:07:50;;;;;;;11.70;8.07;;;;;;;-5.63;100.00;101037.13;5053190;28;20057;-68
2023/12/12 00:10:16;;;;;;;14.00;9.25;;;;;;;-5.71;100.00;101028.78;5053155;28;20194;-67
2023/12/12 00:12:43;;;;;;;15.70;9.48;;;;;;;-5.55;100.00;101048.09;5053079;28;20090;-65
2023/12/12 00:15:10;;;;;;;12.70;7.90;;;;;;;-5.68;100.00;101044.22;5053232;28;20032;-68
2023/12/12 00:17:37;;;;;;;14.85;8.73;;;;;;;-5.69;100.00;101033.00;5052671;28;20560;-67
2023/12/12 00:20:04;;;;;;;13.27;8.93;;;;;;;-5.77;100.00;101023.81;5053067;28;20069;-66
2023/12/12 00:22:29;;;;;;;11.88;8.93;;;;;;;-5.78;100.00;101024.69;5053066;28;20044;-65
2023/12/12 00:24:55;;;;;;;13.00;8.53;;;;;;;-5.72;100.00;101030.53;5052927;28;20033;-65
2023/12/12 00:27:21;;;;;;;12.13;8.63;;;;;;;-5.61;100.00;101035.34;5052740;28;20094;-66
2023/12/12 00:29:46;;;;;;;17.17;9.50;;;;;;;-5.79;100.00;101015.19;5052393;28;20041;-65
2023/12/12 00:32:12;;;;;;;14.23;9.47;;;;;;;-5.70;100.00;101033.91;5051219;28;20190;-65
2023/12/12 00:34:40;;;;;;;11.05;7.60;;;;;;;-5.78;100.00;101014.31;5052908;28;20134;-67
2023/12/12 00:37:05;;;;;;;15.23;9.23;;;;;;;-5.86;100.00;101005.94;5052885;28;20049;-67
2023/12/12 00:39:36;;;;;;;17.87;10.73;;;;;;;-5.65;100.00;101031.16;5052749;28;20131;-66
2023/12/12 00:42:03;;;;;;;12.82;8.27;;;;;;;-5.58;100.00;101037.81;5052823;28;20044;-67
2023/12/12 00:44:29;;;;;;;11.95;8.25;;;;;;;-5.60;100.00;101037.03;5051485;28;20462;-66
2023/12/12 00:46:54;;;;;;;13.47;8.30;;;;;;;-5.56;100.00;101051.59;5052536;28;20033;-65
2023/12/12 00:49:20;;;;;;;13.70;9.00;;;;;;;-5.68;100.00;101026.91;5052406;28;20045;-64
2023/12/12 00:51:45;;;;;;;14.93;9.37;;;;;;;-5.80;100.00;101016.09;5052253;28;20036;-66
2023/12/12 00:54:11;;;;;;;13.67;9.30;;;;;;;-5.79;100.00;101012.59;5052009;28;20036;-65
2023/12/12 00:56:37;;;;;;;17.30;10.67;;;;;;;-5.62;100.00;101038.81;5051840;28;20404;-65
2023/12/12 00:59:03;;;;;;;11.60;8.77;;;;;;;-5.57;100.00;101036.91;5051600;28;20025;-65
2023/12/12 01:01:28;;;;;;;12.17;8.63;;;;;;;-5.57;100.00;101029.13;5051837;28;20443;-66
2023/12/12 01:03:54;;;;;;;12.77;8.63;;;;;;;-5.61;100.00;101007.63;5052076;28;20033;-65
2023/12/12 01:06:24;;;;;;;13.07;9.67;;;;;;;-5.55;100.00;101022.13;5050681;28;20033;-66
2023/12/12 01:08:52;;;;;;;17.88;9.82;;;;;;;-5.72;100.00;101014.97;5051531;28;20064;-65
2023/12/12 01:11:20;;;;;;;15.98;8.93;;;;;;;-5.62;100.00;101031.03;5051861;28;20056;-67
2023/12/12 01:13:46;;;;;;;14.23;8.73;;;;;;;-5.64;100.00;101028.50;5050081;28;20106;-67
2023/12/12 01:16:12;;;;;;;15.90;9.85;;;;;;;-5.67;100.00;101015.66;5052218;28;20039;-65
2023/12/12 01:18:38;;;;;;;14.40;8.87;;;;;;;-5.75;100.00;100989.13;5050893;28;20036;-65
2023/12/12 01:21:03;;;;;;;16.17;10.10;;;;;;;-5.56;100.00;101022.19;5053125;28;20036;-64
2023/12/12 01:23:49;;;;;;;15.47;10.10;;;;;;;-5.52;100.00;101022.03;5052263;28;20028;-65
2023/12/12 01:26:14;;;;;;;15.77;9.65;;;;;;;-5.58;100.00;101022.25;5052891;28;20325;-65
2023/12/12 01:28:41;;;;;;;16.37;9.63;;;;;;;-5.60;100.00;101021.47;5052291;28;20048;-63
2023/12/12 01:31:06;;;;;;;16.48;9.45;;;;;;;-5.70;100.00;101013.16;5051792;28;20044;-68
2023/12/12 01:33:32;;;;;;;14.27;9.77;;;;;;;-5.71;100.00;101000.25;5051862;28;20363;-69
2023/12/12 01:35:58;;;;;;;18.45;10.85;;;;;;;-5.60;100.00;101013.66;5051228;28;20531;-66
2023/12/12 01:38:23;;;;;;;15.30;9.67;;;;;;;-5.71;100.00;101000.25;5051505;28;20037;-66
2023/12/12 01:40:49;;;;;;;16.57;10.87;;;;;;;-5.65;100.00;101005.22;5051107;28;20480;-64
2023/12/12 01:43:24;;;;;;;17.83;10.73;;;;;;;-5.79;100.00;100989.25;5051564;28;20139;-65
2023/12/12 01:45:51;;;;;;;17.33;11.30;;;;;;;-5.69;100.00;101014.00;5050181;28;20143;-66
2023/12/12 01:48:16;;;;;;;19.80;11.60;;;;;;;-5.73;100.00;100982.13;5051262;28;20127;-64
2023/12/12 01:50:43;;;;;;;16.13;11.30;;;;;;;-5.75;100.00;100988.28;5050070;28;20412;-64
2023/12/12 01:53:09;;;;;;;15.88;9.93;;;;;;;-5.62;100.00;100997.31;5051322;28;20040;-66
2023/12/12 01:55:36;;;;;;;17.88;10.25;;;;;;;-6.00;100.00;100937.28;5051462;28;20045;-66
2023/12/12 01:58:02;;;;;;;16.92;9.90;;;;;;;-5.61;100.00;101010.22;5051711;28;20037;-66
2023/12/12 02:00:28;;;;;;;15.32;11.00;;;;;;;-5.63;100.00;100999.06;5050462;28;20047;-66
2023/12/12 02:02:54;;;;;;;18.33;11.05;;;;;;;-5.89;100.00;100954.22;5053206;28;20075;-62
2023/12/12 02:05:20;;;;;;;20.07;10.73;;;;;;;-5.68;100.00;100989.75;5053680;28;20033;-66
2023/12/12 02:07:50;;;;;;;15.40;10.02;;;;;;;-5.59;100.00;100992.00;5052030;28;20064;-66
2023/12/12 02:10:17;;;;;;;15.02;9.52;;;;;;;-5.62;100.00;100979.16;5053920;28;20102;-66
2023/12/12 02:12:44;;;;;;;16.83;10.38;;;;;;;-5.66;100.00;100962.00;5051561;28;20045;-65
2023/12/12 02:15:10;;;;;;;15.93;11.03;;;;;;;-5.42;100.00;101000.06;5051324;28;20552;-66
2023/12/12 02:17:36;;;;;;;16.23;10.50;;;;;;;-5.44;100.00;100999.25;5051510;28;20408;-65
2023/12/12 02:20:01;;;;;;;16.10;9.73;;;;;;;-5.48;100.00;100989.91;5051183;28;20036;-64
2023/12/12 02:22:30;;;;;;;13.68;9.63;;;;;;;-5.40;100.00;100997.41;5050811;28;20460;-66
2023/12/12 02:24:56;;;;;;;14.67;9.47;;;;;;;-5.40;100.00;100990.47;5051394;28;20045;-64
2023/12/12 02:27:21;;;;;;;17.40;10.03;;;;;;;-5.34;100.00;100995.41;5055087;28;20036;-64
2023/12/12 02:29:47;;;;;;;16.10;10.07;;;;;;;-5.38;100.00;100998.19;5054825;28;20380;-66
2023/12/12 02:32:12;;;;;;;16.70;10.10;;;;;;;-5.48;100.00;100986.47;5054947;28;20575;-65
2023/12/12 02:34:38;;;;;;;14.40;10.77;;;;;;;-5.50;100.00;100981.28;5053667;28;20056;-65
2023/12/12 02:37:04;;;;;;;16.10;10.63;;;;;;;-5.56;100.00;100976.31;5054854;28;20041;-66
2023/12/12 02:39:29;;;;;;;17.33;10.63;;;;;;;-5.40;100.00;100995.66;5054843;28;20079;-65
2023/12/12 02:41:55;;;;;;;15.77;10.33;;;;;;;-5.47;100.00;100975.16;5055211;28;20125;-64
2023/12/12 02:44:20;;;;;;;12.10;8.93;;;;;;;-5.83;100.00;100920.25;5054894;28;20120;-63
2023/12/12 02:46:46;;;;;;;14.37;10.00;;;;;;;-5.39;100.00;100979.16;5054844;28;20043;-65
2023/12/12 02:49:11;;;;;;;17.33;10.63;;;;;;;-5.24;100.00;100984.69;5054321;28;20037;-64
2023/12/12 02:51:37;;;;;;;13.60;9.40;;;;;;;-5.34;100.00;100972.06;5054652;28;20033;-67
2023/12/12 02:54:03;;;;;;;13.33;10.10;;;;;;;-5.35;100.00;100969.53;5053097;28;20033;-68
2023/12/12 02:56:32;;;;;;;17.33;10.63;;;;;;;-5.35;100.00;100988.53;5054822;28;20090;-66
2023/12/12 02:58:58;;;;;;;17.42;10.88;;;;;;;-5.47;100.00;100968.22;5054580;28;20492;-64
2023/12/12 03:01:24;;;;;;;14.13;9.50;;;;;;;-5.46;100.00;100961.28;5054821;28;20095;-67
2023/12/12 03:03:49;;;;;;;14.23;9.13;;;;;;;-5.41;100.00;100965.41;5054113;28;20040;-68
2023/12/12 03:06:15;;;;;;;14.73;9.53;;;;;;;-5.32;100.00;100978.03;5053104;28;20041;-67
2023/12/12 03:08:44;;;;;;;13.47;10.00;;;;;;;-5.34;100.00;100979.00;5054272;28;20112;-67
2023/12/12 03:11:09;;;;;;;13.77;10.18;;;;;;;-5.32;100.00;100987.56;5054406;28;20049;-66
2023/12/12 03:13:35;;;;;;;15.23;11.17;;;;;;;-5.33;100.00;100985.88;5052808;28;20037;-66
2023/12/12 03:16:00;;;;;;;13.03;9.97;;;;;;;-5.38;100.00;100960.09;5054118;28;20232;-68
2023/12/12 03:18:26;;;;;;;14.73;10.73;;;;;;;-5.26;100.00;100989.09;5054372;28;20204;-65
2023/12/12 03:20:52;;;;;;;18.93;10.50;;;;;;;-5.26;100.00;100986.50;5054019;28;20048;-63
2023/12/12 03:23:17;;;;;;;16.43;9.77;;;;;;;-5.33;100.00;100976.34;5052664;28;20047;-69
2023/12/12 03:25:43;;;;;;;18.43;10.77;;;;;;;-5.15;100.00;100989.56;5054424;28;20040;-67
2023/12/12 03:28:08;;;;;;;16.50;10.80;;;;;;;-5.22;100.00;100970.75;5054092;28;20086;-64
2023/12/12 03:30:34;;;;;;;18.77;9.93;;;;;;;-5.16;100.00;100977.47;5052697;28;20049;-68
2023/12/12 03:32:59;;;;;;;14.07;9.30;;;;;;;-5.14;100.00;100980.84;5053737;28;20412;-64
2023/12/12 03:35:25;;;;;;;21.93;12.50;;;;;;;-5.05;100.00;100977.91;5053821;28;20037;-64
2023/12/12 03:37:51;;;;;;;17.83;10.87;;;;;;;-5.06;100.00;100973.63;5053632;28;20047;-68
2023/12/12 03:40:16;;;;;;;15.33;10.87;;;;;;;-5.09;100.00;100978.94;5054321;28;20189;-66
2023/12/12 03:42:44;;;;;;;14.60;9.73;;;;;;;-5.10;100.00;100985.03;5053583;28;20127;-63
2023/12/12 03:45:10;;;;;;;12.73;8.93;;;;;;;-5.17;100.00;100980.97;5053892;28;20125;-66
2023/12/12 03:47:35;;;;;;;17.77;10.07;;;;;;;-5.18;100.00;100981.88;5054732;28;20268;-66
2023/12/12 03:50:01;;;;;;;15.70;10.03;;;;;;;-5.24;100.00;100974.31;5052176;28;20047;-64
2023/12/12 03:52:30;;;;;;;;;;;;;;;-5.16;100.00;100973.13;5052906;28;20124;-65
2023/12/12 03:54:55;;;;;;;15.00;8.93;;;;;;;-5.21;100.00;100966.38;5053639;28;20474;-66
2023/12/12 03:57:21;;;;;;;13.27;8.93;;;;;;;-5.23;100.00;100958.66;5052425;28;20039;-66
2023/12/12 03:59:47;;;;;;;13.40;9.17;;;;;;;-5.11;100.00;100973.78;5035695;28;20171;-67
2023/12/12 04:02:12;;;;;;;14.80;9.83;;;;;;;-5.13;100.00;100952.25;5054778;28;20037;-66
2023/12/12 04:04:38;;;;;;;14.40;9.10;;;;;;;-5.47;100.00;100890.38;5055506;28;20106;-66
2023/12/12 04:07:04;;;;;;;14.40;9.70;;;;;;;-5.03;100.00;100966.56;5054479;28;20451;-67
2023/12/12 04:09:29;;;;;;;18.03;9.73;;;;;;;-5.15;100.00;100956.66;5053133;28;20063;-68
2023/12/12 04:11:55;;;;;;;18.80;10.30;;;;;;;-5.18;100.00;100964.56;5052044;28;20044;-66
2023/12/12 04:14:21;;;;;;;15.70;10.60;;;;;;;-5.21;100.00;100950.81;5053645;28;20035;-64
2023/12/12 04:16:46;;;;;;;11.83;8.43;;;;;;;-5.27;100.00;100948.47;5018451;28;20127;-65
2023/12/12 04:19:12;;;;;;;12.80;9.30;;;;;;;-5.39;100.00;100929.84;5052777;28;20086;-68
2023/12/12 04:21:42;;;;;;;11.90;9.57;;;;;;;-5.13;100.00;100964.38;5053344;28;20481;-68
2023/12/12 04:24:08;;;;;;;15.75;9.38;;;;;;;-5.19;100.00;100956.81;5053195;28;20040;-67
2023/12/12 04:26:33;;;;;;;15.47;9.67;;;;;;;-5.26;100.00;100944.97;5052835;28;20449;-65
2023/12/12 04:28:59;;;;;;;12.33;9.53;;;;;;;-5.17;100.00;100950.66;5052688;28;20124;-65
2023/12/12 04:31:25;;;;;;;16.77;10.40;;;;;;;-5.34;100.00;100914.09;5052367;28;20036;-67
2023/12/12 04:33:51;;;;;;;12.50;8.90;;;;;;;-5.15;100.00;100948.00;5052638;28;20586;-67
2023/12/12 04:36:16;;;;;;;15.53;9.43;;;;;;;-5.15;100.00;100937.63;5052822;28;20037;-66
2023/12/12 04:38:42;;;;;;;18.47;9.73;;;;;;;-5.01;100.00;100958.69;5052467;28;20037;-68
2023/12/12 04:41:08;;;;;;;15.57;10.30;;;;;;;-5.19;100.00;100926.50;5051073;28;20079;-65
2023/12/12 04:43:34;;;;;;;17.30;9.93;;;;;;;-5.17;100.00;100936.84;5052431;28;20044;-66
2023/12/12 04:46:00;;;;;;;15.65;9.02;;;;;;;-5.17;100.00;100935.09;5051996;28;20404;-66
2023/12/12 04:48:27;;;;;;;16.33;10.17;;;;;;;-5.11;100.00;100949.59;5051212;28;20053;-67
2023/12/12 04:50:52;;;;;;;16.13;9.80;;;;;;;-5.00;100.00;100957.78;5050806;28;20504;-67
2023/12/12 04:53:18;;;;;;;13.80;10.18;;;;;;;-4.93;100.00;100956.66;5049921;28;20044;-67
2023/12/12 04:55:44;;;;;;;13.80;9.27;;;;;;;-4.90;100.00;100953.94;5051628;28;20049;-65
2023/12/12 04:58:10;;;;;;;11.67;9.13;;;;;;;-4.89;100.00;100950.44;5050413;28;20510;-67
2023/12/12 05:00:35;;;;;;;13.87;9.13;;;;;;;-5.71;100.00;100818.66;5051713;28;20032;-67
2023/12/12 05:03:01;;;;;;;13.60;8.90;;;;;;;-5.09;100.00;100921.81;5051445;28;20052;-68
2023/12/12 05:05:27;;;;;;;19.47;11.83;;;;;;;-5.07;100.00;100925.19;5052176;28;20086;-67
2023/12/12 05:07:52;;;;;;;23.23;18.27;;;;;;;-4.96;100.00;100959.38;5051759;28;20397;-69
2023/12/12 05:10:19;;;;;;;20.77;14.23;;;;;;;-5.01;100.00;100940.53;5051819;28;20071;-69
2023/12/12 05:12:44;;;;;;;22.88;12.77;;;;;;;-5.07;100.00;100940.75;5052006;28;20048;-69
2023/12/12 05:15:10;;;;;;;24.73;15.67;;;;;;;-4.89;100.00;100957.41;5049987;28;20032;-69
2023/12/12 05:17:35;;;;;;;21.07;16.90;;;;;;;-4.98;100.00;100945.59;5050328;28;20036;-67
2023/12/12 05:20:03;;;;;;;15.10;9.93;;;;;;;-5.17;100.00;100910.88;5050019;28;20028;-68
2023/12/12 05:22:29;;;;;;;15.80;10.10;;;;;;;-4.97;100.00;100955.06;5059287;28;20488;-67
2023/12/12 05:24:55;;;;;;;14.40;9.70;;;;;;;-5.14;100.00;100926.34;5038958;28;20037;-67
2023/12/12 05:27:21;;;;;;;16.60;9.67;;;;;;;-4.93;100.00;100953.19;5039700;28;20078;-68
2023/12/12 05:29:47;;;;;;;14.00;9.50;;;;;;;-4.91;100.00;100957.47;5050153;28;20037;-67
2023/12/12 05:32:13;;;;;;;13.82;10.00;;;;;;;-5.00;100.00;100944.81;5051468;28;20074;-67
2023/12/12 05:34:38;;;;;;;14.73;9.55;;;;;;;-4.94;100.00;100957.56;5051335;28;20040;-68
2023/12/12 05:37:04;;;;;;;17.27;9.53;;;;;;;-5.07;100.00;100939.00;5051456;28;20045;-65
2023/12/12 05:39:30;;;;;;;14.73;9.70;;;;;;;-4.93;100.00;100964.44;5049748;28;20048;-68
2023/12/12 05:41:56;;;;;;;15.53;9.87;;;;;;;-5.29;100.00;100904.38;5051410;28;20498;-66
2023/12/12 05:44:23;;;;;;;18.30;11.57;;;;;;;-5.05;100.00;100945.00;5051295;28;20040;-68
2023/12/12 05:46:50;;;;;;;14.23;10.50;;;;;;;-5.02;100.00;100952.66;5051275;28;20044;-69
2023/12/12 05:49:16;;;;;;;15.27;11.65;;;;;;;-4.94;100.00;100959.31;5049698;28;20036;-66
2023/12/12 05:51:42;;;;;;;16.87;10.63;;;;;;;-4.93;100.00;100951.44;5050894;28;20488;-68
2023/12/12 05:54:13;;;;;;;14.00;9.17;;;;;;;-4.86;100.00;100960.72;5050987;28;20270;-67
2023/12/12 05:56:43;;;;;;;15.10;9.50;;;;;;;-4.91;100.00;100946.22;5051022;28;20040;-67
2023/12/12 05:59:08;;;;;;;;;;;;;;;-4.82;100.00;100966.63;5051209;28;20131;-65
2023/12/12 06:01:34;;;;;;;13.27;9.10;;;;;;;-5.05;100.00;100942.41;5053911;28;20095;-67
2023/12/12 06:04:00;;;;;;;13.73;9.00;;;;;;;-4.94;100.00;100961.91;5053575;28;20043;-65
2023/12/12 06:06:26;;;;;;;14.13;9.63;;;;;;;-4.96;100.00;100964.56;5054666;28;20039;-65
2023/12/12 06:08:52;;;;;;;15.33;11.47;;;;;;;-4.93;100.00;100964.44;5054521;28;20053;-66
2023/12/12 06:11:21;;;;;;;15.68;10.65;;;;;;;-5.01;100.00;100946.56;5054934;28;20515;-66
2023/12/12 06:13:47;;;;;;;;;;;;;;;-4.88;100.00;100972.06;5054852;28;20055;-66
2023/12/12 06:16:12;;;;;;;13.83;9.67;;;;;;;-4.88;100.00;100965.13;5054770;28;20379;-65
2023/12/12 06:18:38;;;;;;;16.60;8.97;;;;;;;-4.81;100.00;100974.38;5054963;28;20061;-67
2023/12/12 06:21:04;;;;;;;13.52;9.32;;;;;;;-4.93;100.00;100954.03;5054739;28;20041;-66
2023/12/12 06:23:30;;;;;;;14.80;9.63;;;;;;;-4.83;100.00;100971.00;5052988;28;20456;-67
2023/12/12 06:25:56;;;;;;;14.02;9.98;;;;;;;-4.83;100.00;100975.34;5054915;28;20048;-68
2023/12/12 06:28:22;;;;;;;20.80;11.17;;;;;;;-4.86;100.00;100970.25;5054177;28;20036;-68
2023/12/12 06:30:47;;;;;;;13.40;8.70;;;;;;;-4.79;100.00;100975.16;5054455;28;20037;-66
2023/12/12 06:33:13;;;;;;;12.07;9.37;;;;;;;-4.79;100.00;100976.91;5054322;28;20396;-66
2023/12/12 06:35:39;;;;;;;15.03;9.50;;;;;;;-4.89;100.00;100966.03;5054408;28;20040;-65
2023/12/12 06:38:04;;;;;;;13.97;9.23;;;;;;;-4.83;100.00;100968.38;5054540;28;20381;-67
2023/12/12 06:40:30;;;;;;;17.87;8.73;;;;;;;-4.75;100.00;100981.91;5054621;28;20037;-68
2023/12/12 06:42:55;;;;;;;12.57;8.80;;;;;;;-4.84;100.00;100964.09;5054233;28;20040;-66
2023/12/12 06:45:21;;;;;;;15.27;9.27;;;;;;;-4.78;100.00;100963.00;5054088;28;20551;-65
2023/12/12 06:47:47;;;;;;;12.70;9.57;;;;;;;-4.84;100.00;100974.50;5054199;28;20128;-66
2023/12/12 06:50:13;;;;;;;13.63;10.32;;;;;;;-4.66;100.00;100988.50;5053846;28;20507;-67
2023/12/12 06:52:40;;;;;;;21.67;10.93;;;;;;;-4.71;100.00;100978.28;5053716;28;20044;-69
2023/12/12 06:55:06;;;;;;;13.02;9.02;;;;;;;-4.74;100.00;100975.81;5053544;28;20060;-67
2023/12/12 06:57:32;;;;;;;15.00;9.03;;;;;;;-4.62;100.00;100989.25;5053315;28;20468;-65
2023/12/12 06:59:57;;;;;;;14.97;10.33;;;;;;;-4.62;100.00;100994.44;5053870;28;20272;-66
2023/12/12 07:02:23;;;;;;;11.63;9.13;;;;;;;-4.74;100.00;100975.81;5053538;28;20033;-66
2023/12/12 07:04:49;;;;;;;16.57;11.50;;;;;;;-4.61;100.00;100996.97;5053093;28;20036;-68
2023/12/12 07:07:14;;;;;;;14.73;9.80;;;;;;;-4.69;100.00;100989.47;5053589;28;20139;-68
2023/12/12 07:09:40;;;;;;;16.37;9.80;;;;;;;-4.80;100.00;100977.81;5053511;28;20405;-66
2023/12/12 07:12:06;;;;;;;17.77;11.23;;;;;;;-4.79;100.00;100967.34;5053170;28;20131;-67
2023/12/12 07:14:31;;;;;;;13.73;9.25;;;;;;;-4.58;100.00;101002.06;5054407;28;20094;-66
2023/12/12 07:16:57;;;;;;;17.60;10.57;;;;;;;-4.50;100.00;100992.19;5053563;28;20049;-65
2023/12/12 07:19:23;;;;;;;20.27;11.03;;;;;;;-4.52;100.00;100982.75;5053681;28;20503;-66
2023/12/12 07:21:48;;;;;;;15.33;10.20;;;;;;;-4.49;100.00;100999.06;5052922;28;20036;-69
2023/12/12 07:24:14;;;;;;;17.97;11.07;;;;;;;-5.08;100.00;100897.53;5053066;28;20375;-66
2023/12/12 07:26:45;;;;;;;20.02;10.63;;;;;;;-4.55;100.00;100999.34;5052271;28;20121;-68
2023/12/12 07:29:11;;;;;;;15.48;11.23;;;;;;;-4.57;100.00;101002.91;5053782;28;20044;-66
2023/12/12 07:31:37;;;;;;;13.32;9.60;;;;;;;-4.66;100.00;100983.28;5053220;28;20472;-66
2023/12/12 07:34:05;;;;;;;15.35;8.88;;;;;;;-4.52;100.00;100990.56;5053129;28;20052;-66
2023/12/12 07:36:31;;;;;;;16.70;9.63;;;;;;;-4.50;100.00;100999.16;5053136;28;20029;-67
2023/12/12 07:39:00;;;;;;;13.93;9.30;;;;;;;-4.48;100.00;100992.13;5051559;28;20124;-68
2023/12/12 07:41:26;;;;;;;60.70;24.30;;;;;;;-4.54;100.00;100981.97;5053148;28;20504;-67
2023/12/12 07:43:52;;;;;;;17.03;10.47;;;;;;;-4.75;100.00;100940.34;5053497;28;20037;-70
2023/12/12 07:46:17;;;;;;;21.70;11.00;;;;;;;-4.62;100.00;100958.06;5053139;28;20033;-67
2023/12/12 07:48:43;;;;;;;16.93;10.07;;;;;;;-4.44;100.00;100978.94;5052837;28;20029;-66
2023/12/12 07:51:10;;;;;;;15.40;9.50;;;;;;;-4.38;100.00;100996.03;5053083;28;20473;-69
2023/12/12 07:53:36;;;;;;;15.80;10.43;;;;;;;-4.34;100.00;100997.59;5053495;28;20041;-68
2023/12/12 07:56:01;;;;;;;13.00;8.57;;;;;;;-4.33;100.00;100994.13;5053011;28;20098;-69
2023/12/12 07:58:27;;;;;;;16.83;9.80;;;;;;;-4.49;100.00;100978.28;5052935;28;20072;-67
2023/12/12 08:00:53;;;;;;;15.50;9.70;;;;;;;-4.49;100.00;100980.03;5053028;28;20083;-66
2023/12/12 08:03:18;;;;;;;17.03;10.43;;;;;;;-4.44;100.00;100994.53;5052890;28;20041;-69
2023/12/12 08:05:44;;;;;;;12.47;9.23;;;;;;;-4.37;100.00;100995.97;5053048;28;20107;-67
2023/12/12 08:08:34;;;;;;;11.73;8.50;;;;;;;-4.27;100.00;100991.25;5052463;28;20053;-68
2023/12/12 08:11:03;;;;;;;16.17;10.10;;;;;;;-4.52;100.00;100951.56;5051595;28;20045;-70
2023/12/12 08:13:30;;;;;;;;;;;;;;;-4.30;100.00;100990.53;5052366;28;20029;-69
2023/12/12 08:15:56;;;;;;;15.10;9.93;;;;;;;-4.39;100.00;100996.94;5052733;28;19917;-69
2023/12/12 08:18:21;;;;;;;15.90;10.70;;;;;;;-4.39;100.00;100996.94;5052687;28;20519;-70
2023/12/12 08:20:47;;;;;;;12.60;9.37;;;;;;;-4.42;100.00;101002.28;5052773;28;20033;-67
2023/12/12 08:23:13;;;;;;;15.40;9.53;;;;;;;-4.50;100.00;100976.59;5051810;28;20044;-69
2023/12/12 08:25:58;;;;;;;17.57;10.50;;;;;;;-4.44;100.00;100978.09;5052459;28;20123;-71
2023/12/12 08:28:25;;;;;;;18.55;10.10;;;;;;;-4.36;100.00;100976.03;5052562;28;20037;-69
2023/12/12 08:31:29;;;;;;;14.10;9.70;;;;;;;-4.17;100.00;100996.94;5052273;28;20072;-70
2023/12/12 08:33:54;;;;;;;15.15;8.65;;;;;;;-4.38;100.00;100972.63;5052944;28;20045;-68
2023/12/12 08:36:20;;;;;;;16.43;10.47;;;;;;;-4.36;100.00;100976.03;5051900;28;20071;-69
2023/12/12 08:38:50;;;;;;;14.83;10.07;;;;;;;-4.42;100.00;100976.28;5052146;28;20043;-68
2023/12/12 08:41:16;;;;;;;16.10;10.38;;;;;;;-4.27;100.00;100988.66;5053290;28;20124;-68
2023/12/12 08:43:41;;;;;;;15.40;10.47;;;;;;;-4.29;100.00;100989.63;5052160;28;20128;-68
2023/12/12 08:46:07;;;;;;;14.73;9.27;;;;;;;-4.28;100.00;100979.19;5053220;28;20037;-68
2023/12/12 08:48:33;;;;;;;14.13;9.70;;;;;;;-4.28;100.00;100981.78;5052998;28;20051;-68
2023/12/12 08:50:58;;;;;;;15.97;9.63;;;;;;;-4.19;100.00;100983.97;5055699;28;20037;-68
2023/12/12 08:53:26;;;;;;;14.70;9.00;;;;;;;-4.14;100.00;100984.63;5054893;28;20041;-71
2023/12/12 08:55:55;;;;;;;14.05;8.50;;;;;;;-4.18;100.00;100972.66;5052930;28;20123;-68
2023/12/12 08:58:23;;;;;;;10.82;7.53;;;;;;;-4.21;100.00;100962.41;5054674;28;20040;-69
2023/12/12 09:00:51;;;;;;;14.48;8.05;;;;;;;-4.09;100.00;100969.69;5052235;28;20500;-68
2023/12/12 09:03:16;;;;;;;11.45;7.78;;;;;;;-4.07;100.00;100972.22;5052300;28;20041;-70
2023/12/12 09:05:42;;;;;;;10.87;8.97;;;;;;;-4.18;100.00;100959.66;5053075;28;20087;-71
2023/12/12 09:08:09;;;;;;;15.67;9.00;;;;;;;-4.30;100.00;100930.75;5052118;28;20118;-68
2023/12/12 09:10:37;;;;;;;12.48;8.40;;;;;;;-4.09;100.00;100958.44;5052031;28;20052;-69
2023/12/12 09:13:04;;;;;;;13.03;8.57;;;;;;;-4.18;100.00;100959.66;5050912;28;20041;-72
2023/12/12 09:15:31;;;;;;;16.08;11.50;;;;;;;-4.39;100.00;100918.94;5052124;28;20044;-69
2023/12/12 09:17:57;;;;;;;12.57;7.93;;;;;;;-4.13;100.00;100952.50;5051955;28;20132;-69
2023/12/12 09:20:23;;;;;;;13.65;9.82;;;;;;;-4.09;100.00;100948.88;5051944;28;20040;-69
2023/12/12 09:22:48;;;;;;;17.73;9.73;;;;;;;-3.92;100.00;100981.13;5050468;28;20427;-72
2023/12/12 09:25:14;;;;;;;15.20;9.07;;;;;;;-3.96;100.00;100976.97;5051594;28;20077;-68
2023/12/12 09:27:39;;;;;;;15.73;9.70;;;;;;;-4.04;100.00;100953.91;5051757;28;20050;-72
2023/12/12 09:30:06;;;;;;;14.77;9.27;;;;;;;-3.91;100.00;100969.81;5052005;28;20048;-69
2023/12/12 09:32:32;;;;;;;13.55;8.73;;;;;;;-3.92;100.00;100966.38;5051990;28;20605;-69
2023/12/12 09:34:57;;;;;;;19.50;10.20;;;;;;;-4.00;100.00;100931.19;5051981;28;20128;-69
2023/12/12 09:37:23;;;;;;;16.33;11.20;;;;;;;-4.03;100.00;100928.72;5052429;28;20432;-71
2023/12/12 09:39:49;;;;;;;12.87;8.40;;;;;;;-4.10;100.00;100921.16;5051477;28;20433;-66
2023/12/12 09:42:17;;;;;;;16.08;9.43;;;;;;;-3.82;100.00;100966.81;5051497;28;20036;-68
2023/12/12 09:44:51;;;;;;;16.35;8.40;;;;;;;-3.91;100.00;100946.41;5051324;28;20048;-67
2023/12/12 09:47:17;;;;;;;16.40;11.27;;;;;;;-3.84;100.00;100940.84;5051463;28;20079;-68
2023/12/12 09:49:45;;;;;;;13.82;9.95;;;;;;;-3.71;100.00;100953.34;5051074;28;20044;-68
2023/12/12 09:52:14;;;;;;;16.17;10.38;;;;;;;-3.79;100.00;100930.25;5051184;28;20044;-68
2023/12/12 09:54:41;;;;;;;15.18;10.90;;;;;;;-3.62;100.00;100934.72;5050782;28;20400;-70
2023/12/12 09:57:06;;;;;;;18.48;10.80;;;;;;;-3.51;100.00;100935.91;5051943;28;20040;-68
2023/12/12 09:59:32;;;;;;;16.90;10.40;;;;;;;-3.47;100.00;100936.63;5051007;28;20033;-67
2023/12/12 10:01:59;;;;;;;18.33;9.27;;;;;;;-3.50;100.00;100936.75;5050401;28;20048;-67
2023/12/12 10:04:26;;;;;;;17.27;10.45;;;;;;;-3.52;100.00;100929.03;5051243;28;20029;-66
2023/12/12 10:06:54;;;;;;;13.95;8.68;;;;;;;-3.42;100.00;100933.84;5049449;28;20044;-67
2023/12/12 10:09:21;;;;;;;13.83;8.93;;;;;;;-3.51;100.00;100917.69;5062330;28;20053;-68
2023/12/12 10:11:48;;;;;;;12.43;8.70;;;;;;;-3.48;100.00;100920.16;5050578;28;20321;-66
2023/12/12 10:14:13;;;;;;;11.98;8.32;;;;;;;-3.76;100.00;100902.34;5050572;28;20408;-66
2023/12/12 10:16:39;;;;;;;12.13;9.10;;;;;;;-3.73;100.00;100914.38;5049009;28;20036;-67
2023/12/12 10:19:11;;;;;;;14.05;9.70;;;;;;;-3.80;100.00;100902.53;5050439;28;20121;-68
2023/12/12 10:21:36;;;;;;;16.90;10.27;;;;;;;-3.97;100.00;100879.03;5050876;28;20033;-66
2023/12/12 10:24:03;;;;;;;13.53;9.47;;;;;;;-3.80;100.00;100902.53;5051015;28;20040;-66
2023/12/12 10:26:32;;;;;;;13.40;9.10;;;;;;;-3.61;100.00;100913.81;5049670;28;20401;-66
2023/12/12 10:29:00;;;;;;;14.18;8.02;;;;;;;-3.56;100.00;100919.66;5050386;28;20095;-66
2023/12/12 10:31:26;;;;;;;15.45;9.38;;;;;;;-3.83;100.00;100887.06;5050945;28;20119;-66
2023/12/12 10:33:56;;;;;;;10.53;8.77;;;;;;;-3.73;100.00;100905.72;5050637;28;20123;-65
2023/12/12 10:36:22;;;;;;;13.55;8.35;;;;;;;-4.07;100.00;100848.19;5050210;28;20033;-67
2023/12/12 10:38:48;;;;;;;14.23;8.00;;;;;;;-3.64;100.00;100916.56;5051195;28;20136;-68
2023/12/12 10:41:15;;;;;;;11.70;8.57;;;;;;;-3.83;100.00;100877.50;5051044;28;20028;-64
2023/12/12 10:43:45;;;;;;;14.13;8.25;;;;;;;-3.64;100.00;100921.78;5051403;28;20040;-67
2023/12/12 10:46:16;;;;;;;10.73;8.00;;;;;;;-3.75;100.00;100898.00;5052369;28;20041;-65
2023/12/12 10:48:43;;;;;;;12.10;8.43;;;;;;;-3.79;100.00;100892.06;5054381;28;20481;-65
2023/12/12 10:51:11;;;;;;;12.98;8.20;;;;;;;-3.68;100.00;100907.22;5053665;28;20029;-64
2023/12/12 10:53:37;;;;;;;13.07;7.80;;;;;;;-3.84;100.00;100901.81;5054466;28;20037;-64
2023/12/12 10:56:04;;;;;;;13.50;8.30;;;;;;;-3.73;100.00;100906.56;5019694;28;20035;-64
2023/12/12 10:58:31;;;;;;;13.63;8.85;;;;;;;-3.92;100.00;100882.28;5053643;28;20048;-64
2023/12/12 11:00:59;;;;;;;10.27;7.57;;;;;;;-3.68;100.00;100907.22;5052294;28;20063;-64
2023/12/12 11:03:25;;;;;;;12.05;8.15;;;;;;;-3.66;100.00;100910.59;5053726;28;20040;-65